Bei Facebook empfehlenBei Twitter postenGoogle plusPinterest

Das Wetter im Erzgebirge am 23.08.2016

Wetter und Klima am 23.08.2016 Holzhau im Erzgebirge (630m ü.NN)
Letzte gemessene Temperatur und Uhrzeit der Messung23:45:00 Uhr14.90 °C
Temperatur (Maximum / Höchstwert) und Uhrzeit der Messung16:15:00 Uhr26.90 °C
Temperatur (Minimum / Tiefstwert) und Uhrzeit der Messung01:15:009.00 °C
Errechneter Absolutwert der Temperaturschwankungen zwischen Tmin und Tmax des Tages17.90 K
Errechnete Tagesmitteltemperatur17.27917 °C
Gesamt - Niederschlag des Tages (in flüssiger Form)0.52 Liter / m²
Luftdruck (Maximum / Höchstwert) und Zeitpunkt der Messung11:15:00 Uhr1024.80 hPa
Luftdruck (Minimum / Tiefstwert) und Zeitpunkt der Messung03:00:00 Uhr1023.80 hPa
Errechneter Absolutwert der Luftdruckschwankungen des Tages1.00 hPa
Höchste gemessene Windgeschwindigkeit und Uhrzeit der Messung23:45:00 Uhr0.00 km/h
Errechnete Windhäufigkeit in Relation zu den Messwerten des Tages0.00000 %
Niedrigste Windkühle (Windchill) und Zeitpunkt der Messung01:15:00 Uhr9.00 °C
Taupunkt (Maximum / Höchstwert) und Uhrzeit der Messung10:30:00 Uhr17.30 °C
Taupunkt (Minimum / Tiefstwert) und Uhrzeit der Messung00:00:007.20 °C
Anzahl der automatisch eingelesenen Messwerte 96

Detaillierte Wetter- und Klima- Messwerte für den 23.08.2016 in Holzhau im Erzgebirge (630m ü.NN)
ZeitTemperaturLuftdruckRel. LuftfeuchteWindWindrichtungWindchillTaupunktNiederschlag l/m²
23:45:0014.90 °C1024.10 hPa85.00 %12.40 °C0.52
23:30:0015.50 °C1024.10 hPa84.00 %12.80 °C0.52
23:15:0016.00 °C1024.20 hPa83.00 %13.10 °C0.52
23:00:0016.50 °C1024.30 hPa83.00 %13.60 °C0.52
22:45:0016.90 °C1024.40 hPa82.00 %13.80 °C0.52
22:30:0017.00 °C1024.30 hPa83.00 %14.10 °C0.52
22:15:0017.10 °C1024.40 hPa82.00 %14.00 °C0.52
22:00:0017.30 °C1024.50 hPa81.00 %14.00 °C0.52
21:45:0017.30 °C1024.40 hPa80.00 %13.80 °C0.52
21:30:0017.50 °C1024.70 hPa79.00 %13.80 °C0.52
21:15:0017.80 °C1024.40 hPa78.00 %13.90 °C0.52
21:00:0017.90 °C1024.50 hPa77.00 %13.80 °C0.52
20:45:0018.30 °C1024.20 hPa76.00 %14.00 °C0.52
20:30:0018.80 °C1024.20 hPa74.00 %14.10 °C0.52
20:15:0019.10 °C1024.40 hPa74.00 %14.40 °C0.52
20:00:0019.60 °C1024.20 hPa72.00 %14.40 °C0.52
19:45:0019.90 °C1024.10 hPa71.00 %14.50 °C0.52
19:30:0020.30 °C1024.10 hPa70.00 %14.70 °C0.52
19:15:0020.70 °C1024.00 hPa69.00 %14.80 °C0.52
19:00:0021.10 °C1024.00 hPa67.00 %14.70 °C0.52
18:45:0021.40 °C1024.00 hPa65.00 %14.60 °C0.52
18:30:0021.80 °C1024.10 hPa64.00 %14.70 °C0.52
18:15:0022.10 °C1024.10 hPa62.00 %14.50 °C0.52
18:00:0022.50 °C1024.10 hPa61.00 %14.60 °C0.52
17:45:0023.10 °C1024.10 hPa59.00 %14.70 °C0.52
17:30:0024.10 °C1024.10 hPa57.00 %15.10 °C0.52
17:15:0024.60 °C1024.20 hPa57.00 %15.50 °C0.52
17:00:0025.30 °C1024.20 hPa55.00 %15.60 °C0.52
16:45:0025.90 °C1024.00 hPa54.00 %15.90 °C0.52
16:30:0025.90 °C1024.10 hPa54.00 %15.90 °C0.52
16:15:0026.90 °C1024.10 hPa53.00 %16.50 °C0.52
16:00:0026.30 °C1024.20 hPa55.00 %16.50 °C0.52
15:45:0025.50 °C1024.10 hPa58.00 %16.60 °C0.52
15:30:0024.60 °C1024.10 hPa58.00 %15.80 °C0.52
15:15:0024.90 °C1024.10 hPa56.00 %15.50 °C0.52
15:00:0024.80 °C1024.30 hPa57.00 %15.70 °C0.52
14:45:0025.20 °C1024.20 hPa58.00 %16.30 °C0.52
14:30:0024.70 °C1024.30 hPa59.00 %16.20 °C0.52
14:15:0024.40 °C1024.20 hPa59.00 %15.90 °C0.52
14:00:0023.90 °C1024.30 hPa60.00 %15.70 °C0.52
13:45:0023.90 °C1024.20 hPa60.00 %15.70 °C0.52
13:30:0023.50 °C1024.20 hPa60.00 %15.30 °C0.52
13:15:0023.30 °C1024.30 hPa61.00 %15.40 °C0.52
13:00:0023.20 °C1024.30 hPa61.00 %15.30 °C0.52
12:45:0022.80 °C1024.30 hPa64.00 %15.60 °C0.52
12:30:0022.60 °C1024.30 hPa64.00 %15.40 °C0.52
12:15:0022.30 °C1024.50 hPa66.00 %15.60 °C0.52
12:00:0022.30 °C1024.50 hPa66.00 %15.60 °C0.52
11:45:0022.40 °C1024.60 hPa68.00 %16.20 °C0.52
11:30:0022.40 °C1024.70 hPa69.00 %16.40 °C0.52
11:15:0021.80 °C1024.80 hPa71.00 %16.30 °C0.52
11:00:0021.50 °C1024.80 hPa73.00 %16.50 °C0.52
10:45:0021.00 °C1024.70 hPa77.00 %16.80 °C0.52
10:30:0020.70 °C1024.60 hPa81.00 %17.30 °C0.52
10:15:0019.90 °C1024.50 hPa85.00 %17.30 °C0.52
10:00:0019.10 °C1024.50 hPa89.00 %17.20 °C0.52
09:45:0018.50 °C1024.60 hPa91.00 %17.00 °C0.52
09:30:0018.10 °C1024.40 hPa92.00 %16.80 °C0.52
09:15:0016.80 °C1024.30 hPa94.00 %15.80 °C0.52
09:00:0015.50 °C1024.40 hPa94.00 %14.50 °C0.52
08:45:0014.10 °C1024.30 hPa94.00 %13.10 °C0.52
08:30:0013.30 °C1024.50 hPa93.00 %12.20 °C0.52
08:15:0012.90 °C1024.30 hPa93.00 %11.80 °C0.52
08:00:0012.70 °C1024.40 hPa93.00 %11.60 °C0.52
07:45:0012.40 °C1024.20 hPa92.00 %11.10 °C0.52
07:30:0012.60 °C1024.20 hPa92.00 %11.30 °C0.52
07:15:0012.30 °C1024.30 hPa92.00 %11.00 °C0.52
07:00:0011.90 °C1024.10 hPa92.00 %10.60 °C0.52
06:45:0011.60 °C1024.10 hPa92.00 %10.30 °C0.52
06:30:0011.40 °C1024.10 hPa92.00 %10.10 °C0.52
06:15:0011.30 °C1024.20 hPa92.00 %10.00 °C0.52
06:00:0011.30 °C1024.40 hPa92.00 %10.00 °C0.52
05:45:0011.10 °C1024.20 hPa91.00 %9.70 °C0.52
05:30:0011.00 °C1024.10 hPa91.00 %9.60 °C 
05:15:0010.90 °C1024.10 hPa91.00 %9.50 °C 
05:00:0010.90 °C1024.10 hPa91.00 %9.50 °C 
04:45:0010.80 °C1024.10 hPa91.00 %9.40 °C 
04:30:0010.70 °C1024.10 hPa91.00 %9.30 °C 
04:15:0010.60 °C1024.10 hPa91.00 %9.20 °C 
04:00:0010.60 °C1024.10 hPa91.00 %9.20 °C 
03:45:0010.50 °C1024.00 hPa91.00 %9.10 °C 
03:30:0010.50 °C1023.90 hPa91.00 %9.10 °C 
03:15:0010.40 °C1024.00 hPa91.00 %9.00 °C 
03:00:0010.40 °C1023.80 hPa91.00 %9.00 °C 
02:45:0010.20 °C1024.00 hPa90.00 %8.60 °C 
02:30:009.90 °C1024.00 hPa90.00 %8.30 °C 
02:15:009.90 °C1024.20 hPa90.00 %8.30 °C 
02:00:009.80 °C1024.20 hPa90.00 %8.20 °C 
01:45:009.40 °C1024.20 hPa90.00 %7.80 °C 
01:30:009.10 °C1024.40 hPa89.00 %7.40 °C 
01:15:009.00 °C1024.40 hPa89.00 %7.30 °C 
01:00:009.30 °C1024.30 hPa89.00 %7.60 °C 
00:45:009.50 °C1024.40 hPa89.00 %7.80 °C 
00:30:009.30 °C1024.70 hPa89.00 %7.60 °C 
00:15:009.10 °C1024.60 hPa89.00 %7.40 °C 
00:00:009.10 °C1024.40 hPa88.00 %7.20 °C 

Permanenter Link zu dieser Seite: Wetter im Erzgebirge am 23.08.2016
Performance-Info: Die Erstellung der Seite / Statistik(en) / Tabelle(n) erforderte 5 Datenbankserver-Abfrage(n) und dauerte 99 Millisekunden. (Dieser Messwert ist von der Gesamt-Auslastung des Servers abhängig.)
Erzgebirge - Wetter | Erzgebirge - Wetter (Mobilgeräte) | Komplette Klimadatenbank